Latest Coastal Weather Observations for Whyalla

IDS60701

Issued at 12:45 am CDT Tuesday 25 November 2014 (issued every 10 minutes, with the page automatically refreshed every 10 minutes)

About coastal observations | Map of coastal stations | Coastal observations for SA | Marine services | Other Formats
Station Details ID: 018120 Name: WHYALLA AERO Lat: -33.05 Lon: 137.52 Height: 6.5 m
Data from the previous 72 hours. | See also: Recent months at Whyalla
Date/Time
CDT
Temp

°C
Wind Pressure Rain
since 9am
mm
Weather Cloud Vis
km
Sea
Height
m
Swell
Dir
 
Speed
knots
Gust
knots
hPa Trend Height
m
Period
s
Dir
25/12:30am 16.4 S 14 21 1020.1 - 0.0 - Mostly clear 10 - - - -
25/12:00am 16.4 S 15 23 1020.0 - 0.0 - - 10 - - - -
 
Date/Time
CDT
Temp

°C
Wind Pressure Rain
since 9am
mm
Weather Cloud Vis
km
Sea
Height
m
Swell
Dir
 
Speed
knots
Gust
knots
hPa Trend Height
m
Period
s
Dir
24/11:30pm 16.5 S 17 24 1020.1 - 0.0 - Partly cloudy 10 - - - -
24/11:00pm 16.7 S 17 25 1019.9 - 0.0 - Partly cloudy 10 - - - -
24/10:30pm 16.8 S 18 25 1019.5 - 0.0 - Partly cloudy 10 - - - -
24/10:00pm 17.1 S 17 23 1019.1 - 0.0 - Partly cloudy 10 - - - -
24/09:30pm 17.1 S 19 26 1018.6 - 0.0 - Partly cloudy 10 - - - -
24/09:00pm 17.2 S 18 27 1018.2 - 0.0 - Mostly clear 10 - - - -
24/08:30pm 17.3 S 17 25 1017.9 - 0.0 - - 10 - - - -
24/08:20pm 17.4 S 19 29 1017.7 - 0.0 - - 10 - - - -
24/08:00pm 17.5 S 21 29 1017.4 - 0.0 - - 10 - - - -
24/07:44pm 17.8 S 20 30 1017.0 - 0.0 - - 10 - - - -
24/07:30pm 18.0 S 22 31 1016.6 - 0.0 - - 10 - - - -
24/07:00pm 18.7 S 24 32 1016.1 - 0.0 - - 10 - - - -
24/06:30pm 19.2 S 22 29 1015.7 - 0.0 - - 10 - - - -
24/06:13pm 19.5 S 20 30 1015.7 - 0.0 - - 10 - - - -
24/06:00pm 19.7 S 23 31 1015.6 - 0.0 - - 10 - - - -
24/05:30pm 20.0 S 22 30 1015.4 - 0.0 - Partly cloudy 10 - - - -
24/05:16pm 20.0 S 23 35 1015.1 - 0.0 - Partly cloudy 10 - - - -
24/05:00pm 20.4 S 23 31 1015.2 - 0.0 - Partly cloudy 10 - - - -
24/04:52pm 20.0 S 21 31 1014.9 - 0.0 - Partly cloudy 10 - - - -
24/04:30pm 20.2 S 24 31 1014.8 - 0.0 - - 10 - - - -
24/04:00pm 20.5 S 22 29 1014.7 - 0.0 - - 10 - - - -
24/03:42pm 21.8 S 21 31 1014.8 - 0.0 - - 10 - - - -
24/03:30pm 21.0 S 21 28 1014.7 - 0.0 - - 10 - - - -
24/03:00pm 21.1 S 23 29 1014.6 - 0.0 - - 10 - - - -
24/02:30pm 21.4 S 21 28 1014.5 - 0.0 - - 10 - - - -
24/02:00pm 21.4 S 21 30 1014.5 - 0.0 - Partly cloudy 10 - - - -
24/01:30pm 20.9 S 19 25 1014.7 - 0.0 - Partly cloudy 10 - - - -
24/01:17pm 22.4 S 20 30 1014.5 - 0.0 - Partly cloudy 10 - - - -
24/01:00pm 23.2 S 19 27 1014.6 - 0.0 - Partly cloudy 10 - - - -
24/12:30pm 22.4 S 18 23 1014.5 - 0.0 - Partly cloudy 10 - - - -
24/12:00pm 22.9 SSE 16 21 1014.4 - 0.0 - Mostly clear 10 - - - -
24/11:30am 20.9 S 17 24 1014.2 - 0.0 - - 10 - - - -
24/11:00am 21.2 S 16 23 1014.1 - 0.0 - - 10 - - - -
24/10:30am 21.5 S 18 26 1013.9 - 0.0 - - 10 - - - -
24/10:00am 20.6 S 18 24 1013.7 - 0.0 - Partly cloudy 10 - - - -
24/09:30am 21.2 S 19 24 1013.7 - 0.0 - Partly cloudy 10 - - - -
24/09:00am 21.1 S 20 24 1013.5 - 0.0 - Partly cloudy 10 - - - -
24/08:30am 20.5 S 19 25 1013.2 - 0.0 - Partly cloudy 10 - - - -
24/08:00am 20.4 SSW 19 25 1012.5 - 0.0 - Partly cloudy 10 - - - -
24/07:30am 19.9 SSW 17 21 1011.9 - 0.0 - Partly cloudy 10 - - - -
24/07:00am 19.0 SSW 14 18 1011.5 - 0.0 - - 10 - - - -
24/06:30am 18.3 SSW 13 18 1011.2 - 0.0 - - 10 - - - -
24/06:00am 18.1 SSW 15 23 1010.5 - 0.0 - Partly cloudy 10 - - - -
24/05:30am 18.2 SSW 18 24 1009.4 - 0.0 - - 10 - - - -
24/05:00am 18.5 SSW 14 19 1008.8 - 0.0 - - 10 - - - -
24/04:30am 18.8 SSW 15 20 1007.3 - 0.0 - - 10 - - - -
24/04:00am 19.1 SW 16 21 1006.8 - 0.0 - - 10 - - - -
24/03:30am 19.6 SSW 15 19 1006.3 - 0.0 - - 10 - - - -
24/03:00am 20.2 SW 9 13 1006.0 - 0.0 - Partly cloudy 10 - - - -
24/02:30am 20.8 SSW 10 13 1005.9 - 0.0 - - 10 - - - -
24/02:00am 21.2 SSW 8 11 1005.8 - 0.0 - - 10 - - - -
24/01:30am 21.7 SSW 9 12 1006.2 - 0.0 - - 10 - - - -
24/01:00am 22.3 SSW 8 10 1006.7 - 0.0 - - 10 - - - -
24/12:30am 22.6 SW 7 9 1007.2 - 0.0 - - 10 - - - -
24/12:00am 22.9 SW 6 7 1007.3 - 0.0 - Mostly cloudy 10 - - - -
 
Date/Time
CDT
Temp

°C
Wind Pressure Rain
since 9am
mm
Weather Cloud Vis
km
Sea
Height
m
Swell
Dir
 
Speed
knots
Gust
knots
hPa Trend Height
m
Period
s
Dir
23/11:30pm 22.5 WSW 4 6 1007.5 - 0.0 - - 10 - - - -
23/11:00pm 22.6 W 4 7 1008.0 - 0.0 - - 10 - - - -
23/10:30pm 22.1 W 6 7 1008.0 - 0.0 - - 10 - - - -
23/10:00pm 22.6 W 4 6 1008.5 - 0.0 - - 10 - - - -
23/09:30pm 22.7 SW 3 5 1008.0 - 0.0 - - 10 - - - -
23/09:00pm 23.0 S 5 8 1007.0 - 0.0 - Mostly clear 10 - - - -
23/08:30pm 23.2 SSW 9 12 1006.7 - 0.0 - - 10 - - - -
23/08:00pm 23.6 SSW 10 12 1006.5 - 0.0 - - 10 - - - -
23/07:30pm 24.3 S 9 12 1006.3 - 0.0 - - 10 - - - -
23/07:00pm 25.7 S 8 10 1006.1 - 0.0 - - 10 - - - -
23/06:30pm 25.5 S 9 12 1006.0 - 0.0 - - 10 - - - -
23/06:00pm 27.5 SSE 8 11 1005.7 - 0.0 - - 10 - - - -
23/05:30pm 28.1 SE 9 13 1005.9 - 0.0 - - 10 - - - -
23/05:00pm 28.0 SE 11 14 1006.2 - 0.0 - - 10 - - - -
23/04:30pm 27.7 E 12 15 1007.0 - 0.0 - - 10 - - - -
23/04:00pm 26.4 ESE 12 15 1007.4 - 0.0 - - 10 - - - -
23/03:30pm 27.0 ENE 13 17 1007.6 - 0.0 - - 10 - - - -
23/03:26pm 27.1 ENE 13 17 1007.9 - 0.0 - - 10 - - - -
23/03:00pm 27.3 S 5 8 1010.0 - 0.0 - Partly cloudy 10 - - - -
23/02:40pm 24.9 SW 19 30 1009.7 - 0.0 - Partly cloudy 10 - - - -
23/02:36pm 24.3 SW 21 27 1008.6 - 0.0 - Partly cloudy 10 - - - -
23/02:30pm 25.9 ENE 15 22 1007.0 - 0.0 - Partly cloudy 10 - - - -
23/02:18pm 24.1 E 9 21 1008.8 - 0.0 - Partly cloudy 10 - - - -
23/02:00pm 24.9 E 10 15 1011.0 - 0.0 - Partly cloudy 10 - - - -
23/01:56pm 25.8 E 11 15 1009.3 - 0.0 - Partly cloudy 10 - - - -
23/01:30pm 28.3 S 4 6 1011.3 - 0.0 - - 10 - - - -
23/01:00pm 28.9 S 3 7 1010.5 - 0.0 - - 10 - - - -
23/12:41pm 28.6 N 7 11 1009.9 - 0.0 - - 10 - - - -
23/12:30pm 29.1 NNW 8 11 1012.0 - 0.0 - - 10 - - - -
23/12:00pm 26.0 SW 6 11 1011.0 - 0.0 - Mostly cloudy 10 - - - -
23/11:30am 24.8 SW 3 5 1011.4 - 0.0 - - 10 - - - -
23/11:00am 23.4 S 6 8 1011.2 - 0.0 - - 10 - - - -
23/10:30am 22.2 SSE 4 5 1011.6 - 0.0 - - 10 - - - -
23/10:00am 22.4 SSE 6 9 1010.9 - 0.0 - - 10 - - - -
23/09:30am 21.5 S 5 7 1011.7 - 0.0 - - 10 - - - -
23/09:00am 20.7 SE 7 10 1011.5 - 0.0 - - 10 - - - -
23/08:30am 19.8 ESE 8 11 1011.6 - 0.0 - - 10 - - - -
23/08:00am 19.3 E 6 9 1011.6 - 0.0 - - 10 - - - -
23/07:30am 19.4 ESE 7 9 1011.4 - 0.0 - - 10 - - - -
23/07:00am 18.6 SSE 7 9 1011.0 - 0.0 - - 10 - - - -
23/06:30am 17.7 SSE 7 9 1011.0 - 0.0 - - 10 - - - -
23/06:00am 17.3 SSE 7 10 1011.0 - 0.0 - - 10 - - - -
23/05:30am 17.2 SSE 6 9 1011.1 - 0.0 - - 10 - - - -
23/05:00am 15.3 SW 5 7 1011.4 - 0.0 - - 10 - - - -
23/04:30am 15.3 SW 4 6 1011.7 - 0.0 - - 10 - - - -
23/04:00am 15.9 SW 5 6 1011.4 - 0.0 - - 10 - - - -
23/03:30am 16.2 SSW 5 6 1011.7 - 0.0 - Partly cloudy 10 - - - -
23/03:00am 16.8 S 6 9 1012.0 - 0.0 - Mostly clear 10 - - - -
23/02:30am 16.8 SW 6 8 1011.9 - 0.0 - - 10 - - - -
23/02:00am 18.4 S 10 13 1011.8 - 0.0 - - 10 - - - -
23/01:30am 18.6 S 12 16 1011.9 - 0.0 - - 10 - - - -
23/01:00am 18.8 S 13 17 1012.1 - 0.0 - - 10 - - - -
23/12:30am 18.9 S 13 18 1012.0 - 0.0 - - 10 - - - -
23/12:00am 19.1 S 14 17 1012.3 - 0.0 - - 10 - - - -
 
Date/Time
CDT
Temp

°C
Wind Pressure Rain
since 9am
mm
Weather Cloud Vis
km
Sea
Height
m
Swell
Dir
 
Speed
knots
Gust
knots
hPa Trend Height
m
Period
s
Dir
22/11:30pm 19.2 S 13 18 1012.4 - 0.0 - - 10 - - - -
22/11:00pm 19.5 S 16 21 1012.1 - 0.0 - - 10 - - - -
22/10:30pm 19.7 S 15 20 1012.0 - 0.0 - - 10 - - - -
22/10:00pm 20.1 S 17 23 1011.5 - 0.0 - - 10 - - - -
22/09:30pm 20.3 S 17 23 1011.1 - 0.0 - - 10 - - - -
22/09:00pm 20.4 S 18 25 1010.5 - 0.0 - - 10 - - - -
22/08:30pm 20.8 S 18 26 1009.8 - 0.0 - - 10 - - - -
22/08:00pm 21.1 S 18 26 1008.9 - 0.0 - - 10 - - - -
22/07:30pm 21.6 S 21 29 1008.1 - 0.0 - - 10 - - - -
22/07:10pm 22.2 S 20 30 1007.7 - 0.0 - - 10 - - - -
22/07:00pm 22.6 S 21 27 1007.3 - 0.0 - - 10 - - - -
22/06:30pm 24.2 S 19 25 1006.7 - 0.0 - - 10 - - - -
22/06:00pm 25.6 S 18 25 1006.2 - 0.0 - - 10 - - - -
22/05:30pm 25.6 S 21 27 1005.9 - 0.0 - - 10 - - - -
22/05:00pm 26.2 S 20 29 1005.3 - 0.0 - - 10 - - - -
22/04:30pm 27.1 S 22 31 1004.7 - 0.0 - - 10 - - - -
22/04:00pm 27.9 S 21 32 1004.6 - 0.0 - - 10 - - - -
22/03:53pm 27.4 S 22 32 1004.6 - 0.0 - - 10 - - - -
22/03:30pm 27.6 S 23 30 1004.6 - 0.0 - - 10 - - - -
22/03:00pm 27.8 S 20 32 1004.6 - 0.0 - - 10 - - - -
22/02:56pm 30.4 S 17 32 1004.3 - 0.0 - Partly cloudy 10 - - - -
22/02:30pm 30.7 SSE 15 21 1004.3 - 0.0 - Partly cloudy 10 - - - -
22/02:00pm 30.8 S 16 22 1004.3 - 0.0 - - 10 - - - -
22/01:30pm 30.0 SSE 14 18 1004.7 - 0.0 - - 10 - - - -
22/01:00pm 30.1 SSE 12 16 1005.0 - 0.0 - - 10 - - - -
22/12:30pm 29.2 S 14 18 1005.2 - 0.0 - - 10 - - - -
22/12:00pm 28.2 S 16 23 1005.6 - 0.0 - - 10 - - - -
22/11:30am 27.2 S 17 22 1006.0 - 0.0 - - 10 - - - -
22/11:00am 26.0 S 18 23 1006.0 - 0.0 - - 10 - - - -
22/10:30am 25.7 S 19 25 1006.0 - 0.0 - - 10 - - - -
22/10:00am 25.9 S 17 23 1006.0 - 0.0 - - 10 - - - -
22/09:30am 27.0 S 17 25 1005.4 - 0.0 - - 10 - - - -
22/09:29am 27.7 S 15 25 1005.5 - 0.0 - - 10 - - - -
22/09:00am 32.0 NNW 18 23 1005.1 - 0.0 - - 10 - - - -
22/08:30am 30.8 NNW 11 15 1005.2 - 0.0 - - 10 - - - -
22/08:28am 30.7 NNW 11 15 1005.2 - 0.0 - - 10 - - - -
22/08:00am 25.7 S 7 10 1005.4 - 0.0 - - 10 - - - -
22/07:30am 25.4 SSW 5 7 1005.3 - 0.0 - - 10 - - - -
22/07:00am 23.8 E 6 14 1005.0 - 0.0 - - 10 - - - -
22/06:30am 20.1 NNW 7 8 1004.6 - 0.0 - - 10 - - - -
22/06:00am 18.6 NW 7 9 1004.6 - 0.0 - - 10 - - - -
22/05:30am 18.9 NNW 8 9 1004.0 - 0.0 - - 10 - - - -
22/05:00am 18.2 NNW 6 7 1004.0 - 0.0 - - 10 - - - -
22/04:30am 18.2 NNW 6 7 1004.3 - 0.0 - - 10 - - - -
22/04:00am 18.0 NNW 7 8 1004.5 - 0.0 - - 10 - - - -
22/03:30am 17.6 NNW 5 6 1004.6 - 0.0 - - 10 - - - -
22/03:00am 17.1 NNW 5 8 1004.9 - 0.0 - - 10 - - - -
22/02:30am 17.9 NW 6 7 1005.4 - 0.0 - - 10 - - - -
22/02:00am 18.2 WNW 6 8 1005.8 - 0.0 - - 10 - - - -
22/01:30am 18.4 N 3 5 1006.2 - 0.0 - - 10 - - - -
22/01:00am 18.4 NNW 5 7 1006.9 - 0.0 - - 10 - - - -

Other Formats:

Comma delimited format used in spreadsheet applications
http://www.bom.gov.au/fwo/IDS60701/IDS60701.95664.axf

JavaScript Object Notation format (JSON) in row-major order
http://www.bom.gov.au/fwo/IDS60701/IDS60701.95664.json